sensor_id;sensor_type;location;lat;lon;timestamp;P1;durP1;ratioP1;P2;durP2;ratioP2
56269;SDS011;42176;43.240;27.880;2024-02-14T00:01:42;7.73;;;5.47;;
56269;SDS011;42176;43.240;27.880;2024-02-14T00:03:43;8.27;;;5.67;;
56269;SDS011;42176;43.240;27.880;2024-02-14T00:05:43;6.20;;;3.85;;
56269;SDS011;42176;43.240;27.880;2024-02-14T00:07:45;7.32;;;4.47;;
56269;SDS011;42176;43.240;27.880;2024-02-14T00:09:46;6.57;;;4.43;;
56269;SDS011;42176;43.240;27.880;2024-02-14T00:11:47;7.97;;;5.40;;
56269;SDS011;42176;43.240;27.880;2024-02-14T00:13:47;8.27;;;5.67;;
56269;SDS011;42176;43.240;27.880;2024-02-14T00:15:50;11.50;;;4.57;;
56269;SDS011;42176;43.240;27.880;2024-02-14T00:17:51;7.30;;;4.93;;
56269;SDS011;42176;43.240;27.880;2024-02-14T00:19:51;9.23;;;5.27;;
56269;SDS011;42176;43.240;27.880;2024-02-14T00:21:53;10.47;;;5.63;;
56269;SDS011;42176;43.240;27.880;2024-02-14T00:23:53;10.98;;;6.38;;
56269;SDS011;42176;43.240;27.880;2024-02-14T00:25:54;9.00;;;5.30;;
56269;SDS011;42176;43.240;27.880;2024-02-14T00:27:55;9.97;;;6.37;;
56269;SDS011;42176;43.240;27.880;2024-02-14T00:29:55;8.63;;;5.07;;
56269;SDS011;42176;43.240;27.880;2024-02-14T00:31:56;8.03;;;5.13;;
56269;SDS011;42176;43.240;27.880;2024-02-14T00:33:56;6.80;;;5.13;;
56269;SDS011;42176;43.240;27.880;2024-02-14T00:35:57;10.43;;;7.40;;
56269;SDS011;42176;43.240;27.880;2024-02-14T00:37:58;11.15;;;7.65;;
56269;SDS011;42176;43.240;27.880;2024-02-14T00:39:58;15.68;;;8.82;;
56269;SDS011;42176;43.240;27.880;2024-02-14T00:41:59;13.40;;;7.10;;
56269;SDS011;42176;43.240;27.880;2024-02-14T00:43:59;13.43;;;6.23;;
56269;SDS011;42176;43.240;27.880;2024-02-14T00:46:00;10.07;;;6.83;;
56269;SDS011;42176;43.240;27.880;2024-02-14T00:48:01;12.17;;;6.30;;
56269;SDS011;42176;43.240;27.880;2024-02-14T00:50:04;14.45;;;7.82;;
56269;SDS011;42176;43.240;27.880;2024-02-14T00:52:05;12.48;;;6.47;;
56269;SDS011;42176;43.240;27.880;2024-02-14T00:54:06;17.48;;;6.47;;
56269;SDS011;42176;43.240;27.880;2024-02-14T00:56:08;12.27;;;7.55;;
56269;SDS011;42176;43.240;27.880;2024-02-14T00:58:08;13.48;;;8.30;;
56269;SDS011;42176;43.240;27.880;2024-02-14T01:00:09;16.50;;;8.90;;
56269;SDS011;42176;43.240;27.880;2024-02-14T01:02:10;11.70;;;6.32;;
56269;SDS011;42176;43.240;27.880;2024-02-14T01:04:10;15.30;;;7.68;;
56269;SDS011;42176;43.240;27.880;2024-02-14T01:06:11;10.43;;;5.67;;
56269;SDS011;42176;43.240;27.880;2024-02-14T01:08:14;12.05;;;5.50;;
56269;SDS011;42176;43.240;27.880;2024-02-14T01:10:14;12.37;;;6.97;;
56269;SDS011;42176;43.240;27.880;2024-02-14T01:12:15;11.93;;;6.95;;
56269;SDS011;42176;43.240;27.880;2024-02-14T01:14:16;13.68;;;7.68;;
56269;SDS011;42176;43.240;27.880;2024-02-14T01:16:17;7.68;;;5.85;;
56269;SDS011;42176;43.240;27.880;2024-02-14T01:18:18;8.60;;;5.30;;
56269;SDS011;42176;43.240;27.880;2024-02-14T01:20:18;9.37;;;5.53;;
56269;SDS011;42176;43.240;27.880;2024-02-14T01:22:19;11.10;;;8.05;;
56269;SDS011;42176;43.240;27.880;2024-02-14T01:24:19;9.07;;;6.27;;
56269;SDS011;42176;43.240;27.880;2024-02-14T01:26:20;8.53;;;5.90;;
56269;SDS011;42176;43.240;27.880;2024-02-14T01:28:21;4.20;;;3.65;;
56269;SDS011;42176;43.240;27.880;2024-02-14T01:30:21;7.77;;;5.60;;
56269;SDS011;42176;43.240;27.880;2024-02-14T01:32:24;11.98;;;6.88;;
56269;SDS011;42176;43.240;27.880;2024-02-14T01:34:24;12.60;;;9.03;;
56269;SDS011;42176;43.240;27.880;2024-02-14T01:36:25;11.03;;;7.80;;
56269;SDS011;42176;43.240;27.880;2024-02-14T01:38:26;12.95;;;6.78;;
56269;SDS011;42176;43.240;27.880;2024-02-14T01:40:26;14.10;;;8.15;;
56269;SDS011;42176;43.240;27.880;2024-02-14T01:42:27;8.05;;;4.07;;
56269;SDS011;42176;43.240;27.880;2024-02-14T01:44:27;13.45;;;5.28;;
56269;SDS011;42176;43.240;27.880;2024-02-14T01:46:28;6.07;;;4.25;;
56269;SDS011;42176;43.240;27.880;2024-02-14T01:48:29;10.87;;;6.83;;
56269;SDS011;42176;43.240;27.880;2024-02-14T01:50:29;13.30;;;7.80;;
56269;SDS011;42176;43.240;27.880;2024-02-14T01:52:31;18.38;;;9.88;;
56269;SDS011;42176;43.240;27.880;2024-02-14T01:54:32;11.13;;;6.13;;
56269;SDS011;42176;43.240;27.880;2024-02-14T01:56:34;10.25;;;6.30;;
56269;SDS011;42176;43.240;27.880;2024-02-14T01:58:36;9.70;;;5.97;;
56269;SDS011;42176;43.240;27.880;2024-02-14T02:00:37;11.38;;;5.20;;
56269;SDS011;42176;43.240;27.880;2024-02-14T02:02:38;11.17;;;5.77;;
56269;SDS011;42176;43.240;27.880;2024-02-14T02:04:40;8.52;;;4.03;;
56269;SDS011;42176;43.240;27.880;2024-02-14T02:06:40;8.77;;;5.32;;
56269;SDS011;42176;43.240;27.880;2024-02-14T02:08:44;7.97;;;4.32;;
56269;SDS011;42176;43.240;27.880;2024-02-14T02:10:45;10.20;;;6.80;;
56269;SDS011;42176;43.240;27.880;2024-02-14T02:12:46;11.17;;;5.90;;
56269;SDS011;42176;43.240;27.880;2024-02-14T02:14:46;9.37;;;4.87;;
56269;SDS011;42176;43.240;27.880;2024-02-14T02:16:47;7.67;;;4.23;;
56269;SDS011;42176;43.240;27.880;2024-02-14T02:20:49;8.20;;;6.53;;
56269;SDS011;42176;43.240;27.880;2024-02-14T02:22:50;9.93;;;7.18;;
56269;SDS011;42176;43.240;27.880;2024-02-14T02:24:51;12.82;;;8.27;;
56269;SDS011;42176;43.240;27.880;2024-02-14T02:26:51;11.63;;;6.70;;
56269;SDS011;42176;43.240;27.880;2024-02-14T02:28:52;9.98;;;6.72;;
56269;SDS011;42176;43.240;27.880;2024-02-14T02:30:52;9.98;;;5.95;;
56269;SDS011;42176;43.240;27.880;2024-02-14T02:32:55;9.43;;;5.97;;
56269;SDS011;42176;43.240;27.880;2024-02-14T02:34:56;9.63;;;6.80;;
56269;SDS011;42176;43.240;27.880;2024-02-14T02:36:57;12.00;;;7.30;;
56269;SDS011;42176;43.240;27.880;2024-02-14T02:38:58;7.85;;;4.95;;
56269;SDS011;42176;43.240;27.880;2024-02-14T02:41:00;6.95;;;4.55;;
56269;SDS011;42176;43.240;27.880;2024-02-14T02:43:01;7.17;;;4.87;;
56269;SDS011;42176;43.240;27.880;2024-02-14T02:45:01;7.63;;;6.03;;
56269;SDS011;42176;43.240;27.880;2024-02-14T02:47:06;10.00;;;6.22;;
56269;SDS011;42176;43.240;27.880;2024-02-14T02:49:06;6.30;;;4.35;;
56269;SDS011;42176;43.240;27.880;2024-02-14T02:51:07;4.57;;;3.75;;
56269;SDS011;42176;43.240;27.880;2024-02-14T02:53:08;4.95;;;3.17;;
56269;SDS011;42176;43.240;27.880;2024-02-14T02:55:08;4.87;;;4.43;;
56269;SDS011;42176;43.240;27.880;2024-02-14T02:57:10;8.02;;;5.57;;
56269;SDS011;42176;43.240;27.880;2024-02-14T02:59:11;7.20;;;5.50;;
56269;SDS011;42176;43.240;27.880;2024-02-14T03:01:13;10.20;;;4.05;;
56269;SDS011;42176;43.240;27.880;2024-02-14T03:03:14;7.80;;;3.78;;
56269;SDS011;42176;43.240;27.880;2024-02-14T03:07:20;5.30;;;3.17;;
56269;SDS011;42176;43.240;27.880;2024-02-14T03:09:20;4.93;;;4.20;;
56269;SDS011;42176;43.240;27.880;2024-02-14T03:11:22;8.80;;;5.00;;
56269;SDS011;42176;43.240;27.880;2024-02-14T03:13:23;3.60;;;2.67;;
56269;SDS011;42176;43.240;27.880;2024-02-14T03:15:24;2.67;;;2.42;;
56269;SDS011;42176;43.240;27.880;2024-02-14T03:17:27;7.72;;;4.03;;
56269;SDS011;42176;43.240;27.880;2024-02-14T03:19:30;4.28;;;3.53;;
56269;SDS011;42176;43.240;27.880;2024-02-14T03:21:33;4.15;;;3.63;;
56269;SDS011;42176;43.240;27.880;2024-02-14T03:23:35;4.25;;;2.80;;
56269;SDS011;42176;43.240;27.880;2024-02-14T03:25:36;6.88;;;3.88;;
56269;SDS011;42176;43.240;27.880;2024-02-14T03:27:37;5.15;;;2.75;;
56269;SDS011;42176;43.240;27.880;2024-02-14T03:29:37;4.72;;;3.35;;
56269;SDS011;42176;43.240;27.880;2024-02-14T03:31:39;3.60;;;3.10;;
56269;SDS011;42176;43.240;27.880;2024-02-14T03:33:39;2.60;;;2.20;;
56269;SDS011;42176;43.240;27.880;2024-02-14T03:35:40;4.22;;;3.20;;
56269;SDS011;42176;43.240;27.880;2024-02-14T03:37:41;3.45;;;2.53;;
56269;SDS011;42176;43.240;27.880;2024-02-14T03:39:43;4.70;;;3.38;;
56269;SDS011;42176;43.240;27.880;2024-02-14T03:43:46;5.78;;;3.45;;
56269;SDS011;42176;43.240;27.880;2024-02-14T03:45:46;5.13;;;3.47;;
56269;SDS011;42176;43.240;27.880;2024-02-14T03:47:47;4.32;;;3.05;;
56269;SDS011;42176;43.240;27.880;2024-02-14T03:49:47;5.80;;;3.28;;
56269;SDS011;42176;43.240;27.880;2024-02-14T03:51:48;4.93;;;3.17;;
56269;SDS011;42176;43.240;27.880;2024-02-14T03:53:53;3.78;;;2.30;;
56269;SDS011;42176;43.240;27.880;2024-02-14T03:55:53;4.53;;;2.97;;
56269;SDS011;42176;43.240;27.880;2024-02-14T03:57:54;5.10;;;2.90;;
56269;SDS011;42176;43.240;27.880;2024-02-14T03:59:54;3.10;;;2.33;;
56269;SDS011;42176;43.240;27.880;2024-02-14T04:01:56;4.80;;;2.55;;
56269;SDS011;42176;43.240;27.880;2024-02-14T04:03:58;4.88;;;3.03;;
56269;SDS011;42176;43.240;27.880;2024-02-14T04:05:59;3.13;;;2.40;;
56269;SDS011;42176;43.240;27.880;2024-02-14T04:08:00;4.10;;;2.88;;
56269;SDS011;42176;43.240;27.880;2024-02-14T04:10:01;4.03;;;2.83;;
56269;SDS011;42176;43.240;27.880;2024-02-14T04:12:01;2.83;;;2.10;;
56269;SDS011;42176;43.240;27.880;2024-02-14T04:14:02;3.17;;;2.15;;
56269;SDS011;42176;43.240;27.880;2024-02-14T04:16:03;4.10;;;1.83;;
56269;SDS011;42176;43.240;27.880;2024-02-14T04:18:04;5.90;;;4.40;;
56269;SDS011;42176;43.240;27.880;2024-02-14T04:20:06;7.13;;;3.67;;
56269;SDS011;42176;43.240;27.880;2024-02-14T04:22:07;7.03;;;5.07;;
56269;SDS011;42176;43.240;27.880;2024-02-14T04:24:08;5.60;;;4.40;;
56269;SDS011;42176;43.240;27.880;2024-02-14T04:26:09;5.15;;;3.35;;
56269;SDS011;42176;43.240;27.880;2024-02-14T04:28:09;9.10;;;5.35;;
56269;SDS011;42176;43.240;27.880;2024-02-14T04:30:12;6.53;;;3.25;;
56269;SDS011;42176;43.240;27.880;2024-02-14T04:32:13;4.50;;;3.08;;
56269;SDS011;42176;43.240;27.880;2024-02-14T04:34:14;5.07;;;3.30;;
56269;SDS011;42176;43.240;27.880;2024-02-14T04:36:15;6.53;;;4.32;;
56269;SDS011;42176;43.240;27.880;2024-02-14T04:38:16;13.35;;;4.35;;
56269;SDS011;42176;43.240;27.880;2024-02-14T04:40:18;3.53;;;2.53;;
56269;SDS011;42176;43.240;27.880;2024-02-14T04:42:19;2.45;;;1.52;;
56269;SDS011;42176;43.240;27.880;2024-02-14T04:44:19;6.60;;;2.60;;
56269;SDS011;42176;43.240;27.880;2024-02-14T04:46:20;1.98;;;1.40;;
56269;SDS011;42176;43.240;27.880;2024-02-14T04:48:23;4.90;;;3.22;;
56269;SDS011;42176;43.240;27.880;2024-02-14T04:50:25;4.68;;;3.63;;
56269;SDS011;42176;43.240;27.880;2024-02-14T04:52:26;2.33;;;1.70;;
56269;SDS011;42176;43.240;27.880;2024-02-14T04:54:27;2.45;;;1.85;;
56269;SDS011;42176;43.240;27.880;2024-02-14T04:56:28;4.10;;;2.10;;
56269;SDS011;42176;43.240;27.880;2024-02-14T04:58:29;5.22;;;3.00;;
56269;SDS011;42176;43.240;27.880;2024-02-14T05:00:29;2.85;;;2.47;;
56269;SDS011;42176;43.240;27.880;2024-02-14T05:02:30;8.82;;;3.08;;
56269;SDS011;42176;43.240;27.880;2024-02-14T05:04:31;2.33;;;2.08;;
56269;SDS011;42176;43.240;27.880;2024-02-14T05:06:31;2.53;;;2.28;;
56269;SDS011;42176;43.240;27.880;2024-02-14T05:08:32;3.22;;;2.05;;
56269;SDS011;42176;43.240;27.880;2024-02-14T05:10:33;3.53;;;2.50;;
56269;SDS011;42176;43.240;27.880;2024-02-14T05:12:33;3.20;;;2.90;;
56269;SDS011;42176;43.240;27.880;2024-02-14T05:14:37;7.68;;;4.45;;
56269;SDS011;42176;43.240;27.880;2024-02-14T05:16:38;3.20;;;2.05;;
56269;SDS011;42176;43.240;27.880;2024-02-14T05:18:38;4.20;;;2.67;;
56269;SDS011;42176;43.240;27.880;2024-02-14T05:20:39;11.65;;;5.45;;
56269;SDS011;42176;43.240;27.880;2024-02-14T05:22:39;4.03;;;2.83;;
56269;SDS011;42176;43.240;27.880;2024-02-14T05:24:40;1.33;;;1.23;;
56269;SDS011;42176;43.240;27.880;2024-02-14T05:26:41;3.42;;;2.80;;
56269;SDS011;42176;43.240;27.880;2024-02-14T05:28:41;5.55;;;4.15;;
56269;SDS011;42176;43.240;27.880;2024-02-14T05:30:42;4.47;;;2.80;;
56269;SDS011;42176;43.240;27.880;2024-02-14T05:32:43;6.90;;;3.25;;
56269;SDS011;42176;43.240;27.880;2024-02-14T05:34:43;8.50;;;3.28;;
56269;SDS011;42176;43.240;27.880;2024-02-14T05:36:44;4.13;;;3.22;;
56269;SDS011;42176;43.240;27.880;2024-02-14T05:38:45;18.13;;;4.35;;
56269;SDS011;42176;43.240;27.880;2024-02-14T05:40:46;7.50;;;4.00;;
56269;SDS011;42176;43.240;27.880;2024-02-14T05:42:48;9.13;;;5.35;;
56269;SDS011;42176;43.240;27.880;2024-02-14T05:44:48;6.93;;;5.10;;
56269;SDS011;42176;43.240;27.880;2024-02-14T05:46:49;2.20;;;2.00;;
56269;SDS011;42176;43.240;27.880;2024-02-14T05:48:49;4.47;;;2.72;;
56269;SDS011;42176;43.240;27.880;2024-02-14T05:50:52;5.40;;;3.78;;
56269;SDS011;42176;43.240;27.880;2024-02-14T05:52:53;5.83;;;3.30;;
56269;SDS011;42176;43.240;27.880;2024-02-14T05:54:53;2.40;;;2.20;;
56269;SDS011;42176;43.240;27.880;2024-02-14T05:56:54;4.70;;;3.67;;
56269;SDS011;42176;43.240;27.880;2024-02-14T05:58:55;7.20;;;3.97;;
56269;SDS011;42176;43.240;27.880;2024-02-14T06:00:55;5.15;;;3.03;;
56269;SDS011;42176;43.240;27.880;2024-02-14T06:02:56;10.00;;;2.67;;
56269;SDS011;42176;43.240;27.880;2024-02-14T06:04:56;4.40;;;3.70;;
56269;SDS011;42176;43.240;27.880;2024-02-14T06:06:57;4.80;;;3.43;;
56269;SDS011;42176;43.240;27.880;2024-02-14T06:08:57;6.17;;;3.53;;
56269;SDS011;42176;43.240;27.880;2024-02-14T06:10:58;5.45;;;3.30;;
56269;SDS011;42176;43.240;27.880;2024-02-14T06:12:59;3.93;;;2.10;;
56269;SDS011;42176;43.240;27.880;2024-02-14T06:15:00;2.00;;;1.90;;
56269;SDS011;42176;43.240;27.880;2024-02-14T06:17:01;4.85;;;2.55;;
56269;SDS011;42176;43.240;27.880;2024-02-14T06:19:02;7.87;;;3.10;;
56269;SDS011;42176;43.240;27.880;2024-02-14T06:21:04;3.85;;;2.67;;
56269;SDS011;42176;43.240;27.880;2024-02-14T06:23:05;1.73;;;1.60;;
56269;SDS011;42176;43.240;27.880;2024-02-14T06:25:07;3.60;;;3.30;;
56269;SDS011;42176;43.240;27.880;2024-02-14T06:27:08;6.60;;;3.73;;
56269;SDS011;42176;43.240;27.880;2024-02-14T06:29:09;3.43;;;2.87;;
56269;SDS011;42176;43.240;27.880;2024-02-14T06:31:09;5.57;;;2.80;;
56269;SDS011;42176;43.240;27.880;2024-02-14T06:33:10;3.73;;;3.27;;
56269;SDS011;42176;43.240;27.880;2024-02-14T06:35:10;3.43;;;3.13;;
56269;SDS011;42176;43.240;27.880;2024-02-14T06:37:11;4.40;;;3.30;;
56269;SDS011;42176;43.240;27.880;2024-02-14T06:39:12;3.85;;;2.75;;
56269;SDS011;42176;43.240;27.880;2024-02-14T06:41:12;4.23;;;2.90;;
56269;SDS011;42176;43.240;27.880;2024-02-14T06:43:13;6.20;;;3.87;;
56269;SDS011;42176;43.240;27.880;2024-02-14T06:45:14;3.17;;;2.77;;
56269;SDS011;42176;43.240;27.880;2024-02-14T06:47:14;5.40;;;4.13;;
56269;SDS011;42176;43.240;27.880;2024-02-14T06:49:18;7.15;;;3.50;;
56269;SDS011;42176;43.240;27.880;2024-02-14T06:51:18;3.42;;;2.65;;
56269;SDS011;42176;43.240;27.880;2024-02-14T06:53:20;3.38;;;2.97;;
56269;SDS011;42176;43.240;27.880;2024-02-14T06:55:20;4.57;;;3.20;;
56269;SDS011;42176;43.240;27.880;2024-02-14T06:57:21;5.95;;;4.18;;
56269;SDS011;42176;43.240;27.880;2024-02-14T06:59:22;4.80;;;4.30;;
56269;SDS011;42176;43.240;27.880;2024-02-14T07:01:22;7.73;;;4.30;;
56269;SDS011;42176;43.240;27.880;2024-02-14T07:03:23;5.17;;;3.23;;
56269;SDS011;42176;43.240;27.880;2024-02-14T07:05:24;4.30;;;3.03;;
56269;SDS011;42176;43.240;27.880;2024-02-14T07:09:27;5.40;;;2.72;;
56269;SDS011;42176;43.240;27.880;2024-02-14T07:11:29;3.83;;;2.00;;
56269;SDS011;42176;43.240;27.880;2024-02-14T07:13:29;6.57;;;3.57;;
56269;SDS011;42176;43.240;27.880;2024-02-14T07:15:30;5.35;;;4.28;;
56269;SDS011;42176;43.240;27.880;2024-02-14T07:17:30;3.70;;;2.50;;
56269;SDS011;42176;43.240;27.880;2024-02-14T07:19:31;3.75;;;2.33;;
56269;SDS011;42176;43.240;27.880;2024-02-14T07:21:32;5.32;;;2.63;;
56269;SDS011;42176;43.240;27.880;2024-02-14T07:23:33;6.10;;;2.58;;
56269;SDS011;42176;43.240;27.880;2024-02-14T07:25:34;6.90;;;2.23;;
56269;SDS011;42176;43.240;27.880;2024-02-14T07:27:34;3.92;;;3.08;;
56269;SDS011;42176;43.240;27.880;2024-02-14T07:29:35;3.63;;;3.05;;
56269;SDS011;42176;43.240;27.880;2024-02-14T07:31:36;6.90;;;3.67;;
56269;SDS011;42176;43.240;27.880;2024-02-14T07:33:36;6.17;;;3.20;;
56269;SDS011;42176;43.240;27.880;2024-02-14T07:35:37;13.10;;;3.93;;
56269;SDS011;42176;43.240;27.880;2024-02-14T07:37:38;2.97;;;2.65;;
56269;SDS011;42176;43.240;27.880;2024-02-14T07:39:38;2.73;;;1.83;;
56269;SDS011;42176;43.240;27.880;2024-02-14T07:41:39;2.30;;;2.10;;
56269;SDS011;42176;43.240;27.880;2024-02-14T07:43:40;4.47;;;2.90;;
56269;SDS011;42176;43.240;27.880;2024-02-14T07:45:40;4.63;;;1.40;;
56269;SDS011;42176;43.240;27.880;2024-02-14T07:47:41;9.23;;;3.03;;
56269;SDS011;42176;43.240;27.880;2024-02-14T07:49:41;3.37;;;2.50;;
56269;SDS011;42176;43.240;27.880;2024-02-14T07:51:42;4.40;;;3.08;;
56269;SDS011;42176;43.240;27.880;2024-02-14T07:53:42;3.38;;;1.65;;
56269;SDS011;42176;43.240;27.880;2024-02-14T07:55:43;7.00;;;2.23;;
56269;SDS011;42176;43.240;27.880;2024-02-14T07:57:44;5.73;;;2.37;;
56269;SDS011;42176;43.240;27.880;2024-02-14T07:59:44;6.90;;;2.43;;
56269;SDS011;42176;43.240;27.880;2024-02-14T08:01:45;4.63;;;2.07;;
56269;SDS011;42176;43.240;27.880;2024-02-14T08:03:45;3.33;;;2.53;;
56269;SDS011;42176;43.240;27.880;2024-02-14T08:05:46;2.10;;;1.90;;
56269;SDS011;42176;43.240;27.880;2024-02-14T08:07:47;1.40;;;1.30;;
56269;SDS011;42176;43.240;27.880;2024-02-14T08:09:47;1.93;;;1.33;;
56269;SDS011;42176;43.240;27.880;2024-02-14T08:11:48;1.50;;;1.30;;
56269;SDS011;42176;43.240;27.880;2024-02-14T08:13:50;2.90;;;2.22;;
56269;SDS011;42176;43.240;27.880;2024-02-14T08:15:51;1.80;;;1.37;;
56269;SDS011;42176;43.240;27.880;2024-02-14T08:17:52;4.93;;;1.17;;
56269;SDS011;42176;43.240;27.880;2024-02-14T08:19:56;3.13;;;1.33;;
56269;SDS011;42176;43.240;27.880;2024-02-14T08:21:57;1.93;;;1.43;;
56269;SDS011;42176;43.240;27.880;2024-02-14T08:23:59;3.20;;;2.03;;
56269;SDS011;42176;43.240;27.880;2024-02-14T08:26:00;4.00;;;3.23;;
56269;SDS011;42176;43.240;27.880;2024-02-14T08:28:01;3.25;;;2.22;;
56269;SDS011;42176;43.240;27.880;2024-02-14T08:30:01;1.93;;;1.60;;
56269;SDS011;42176;43.240;27.880;2024-02-14T08:32:02;2.67;;;1.70;;
56269;SDS011;42176;43.240;27.880;2024-02-14T08:34:03;2.95;;;1.98;;
56269;SDS011;42176;43.240;27.880;2024-02-14T08:36:07;1.27;;;1.00;;
56269;SDS011;42176;43.240;27.880;2024-02-14T08:38:07;4.43;;;1.98;;
56269;SDS011;42176;43.240;27.880;2024-02-14T08:40:08;1.40;;;1.27;;
56269;SDS011;42176;43.240;27.880;2024-02-14T08:42:09;1.17;;;1.00;;
56269;SDS011;42176;43.240;27.880;2024-02-14T08:44:10;2.50;;;1.20;;
56269;SDS011;42176;43.240;27.880;2024-02-14T08:46:11;4.17;;;1.73;;
56269;SDS011;42176;43.240;27.880;2024-02-14T08:48:11;2.33;;;1.67;;
56269;SDS011;42176;43.240;27.880;2024-02-14T08:50:12;1.47;;;1.37;;
56269;SDS011;42176;43.240;27.880;2024-02-14T08:52:13;4.80;;;1.50;;
56269;SDS011;42176;43.240;27.880;2024-02-14T08:54:14;0.83;;;0.80;;
56269;SDS011;42176;43.240;27.880;2024-02-14T08:56:16;2.15;;;1.40;;
56269;SDS011;42176;43.240;27.880;2024-02-14T08:58:16;1.57;;;1.10;;
56269;SDS011;42176;43.240;27.880;2024-02-14T09:00:17;2.03;;;1.60;;
56269;SDS011;42176;43.240;27.880;2024-02-14T09:02:22;3.90;;;2.58;;
56269;SDS011;42176;43.240;27.880;2024-02-14T09:04:22;0.80;;;0.80;;
56269;SDS011;42176;43.240;27.880;2024-02-14T09:06:23;2.60;;;1.90;;
56269;SDS011;42176;43.240;27.880;2024-02-14T09:08:24;5.73;;;2.13;;
56269;SDS011;42176;43.240;27.880;2024-02-14T09:10:24;1.23;;;1.13;;
56269;SDS011;42176;43.240;27.880;2024-02-14T09:12:25;8.70;;;2.17;;
56269;SDS011;42176;43.240;27.880;2024-02-14T09:14:25;5.40;;;1.43;;
56269;SDS011;42176;43.240;27.880;2024-02-14T09:16:26;3.17;;;1.67;;
56269;SDS011;42176;43.240;27.880;2024-02-14T09:18:27;4.72;;;2.63;;
56269;SDS011;42176;43.240;27.880;2024-02-14T09:20:28;3.40;;;2.40;;
56269;SDS011;42176;43.240;27.880;2024-02-14T09:22:28;4.10;;;2.83;;
56269;SDS011;42176;43.240;27.880;2024-02-14T09:24:29;1.33;;;1.07;;
56269;SDS011;42176;43.240;27.880;2024-02-14T09:26:30;2.78;;;1.77;;
56269;SDS011;42176;43.240;27.880;2024-02-14T09:28:31;2.03;;;1.83;;
56269;SDS011;42176;43.240;27.880;2024-02-14T09:30:33;2.58;;;2.38;;
56269;SDS011;42176;43.240;27.880;2024-02-14T09:32:33;3.10;;;2.27;;
56269;SDS011;42176;43.240;27.880;2024-02-14T09:34:34;3.23;;;1.80;;
56269;SDS011;42176;43.240;27.880;2024-02-14T09:36:35;1.80;;;1.00;;
56269;SDS011;42176;43.240;27.880;2024-02-14T09:38:35;1.73;;;1.47;;
56269;SDS011;42176;43.240;27.880;2024-02-14T09:40:36;2.70;;;1.63;;
56269;SDS011;42176;43.240;27.880;2024-02-14T09:42:50;2.07;;;0.87;;
56269;SDS011;42176;43.240;27.880;2024-02-14T09:45:04;1.88;;;1.33;;
56269;SDS011;42176;43.240;27.880;2024-02-14T09:49:07;1.40;;;1.20;;
56269;SDS011;42176;43.240;27.880;2024-02-14T09:51:09;7.03;;;2.03;;
56269;SDS011;42176;43.240;27.880;2024-02-14T09:53:11;1.43;;;1.33;;
56269;SDS011;42176;43.240;27.880;2024-02-14T09:55:12;5.75;;;1.73;;
56269;SDS011;42176;43.240;27.880;2024-02-14T09:57:15;4.72;;;1.55;;
56269;SDS011;42176;43.240;27.880;2024-02-14T10:01:18;1.35;;;0.98;;
56269;SDS011;42176;43.240;27.880;2024-02-14T10:03:21;3.15;;;1.20;;
56269;SDS011;42176;43.240;27.880;2024-02-14T10:05:21;1.47;;;0.93;;
56269;SDS011;42176;43.240;27.880;2024-02-14T10:07:22;1.30;;;0.93;;
56269;SDS011;42176;43.240;27.880;2024-02-14T10:09:23;3.13;;;1.83;;
56269;SDS011;42176;43.240;27.880;2024-02-14T10:11:25;3.03;;;1.55;;
56269;SDS011;42176;43.240;27.880;2024-02-14T10:13:27;0.95;;;0.88;;
56269;SDS011;42176;43.240;27.880;2024-02-14T10:15:28;1.55;;;1.33;;
56269;SDS011;42176;43.240;27.880;2024-02-14T10:17:32;1.50;;;1.10;;
56269;SDS011;42176;43.240;27.880;2024-02-14T10:19:33;3.08;;;1.95;;
56269;SDS011;42176;43.240;27.880;2024-02-14T10:21:34;4.53;;;2.33;;
56269;SDS011;42176;43.240;27.880;2024-02-14T10:23:35;2.00;;;1.77;;
56269;SDS011;42176;43.240;27.880;2024-02-14T10:25:35;1.67;;;1.47;;
56269;SDS011;42176;43.240;27.880;2024-02-14T10:27:36;6.87;;;2.73;;
56269;SDS011;42176;43.240;27.880;2024-02-14T10:29:38;4.25;;;2.20;;
56269;SDS011;42176;43.240;27.880;2024-02-14T10:31:39;1.33;;;1.13;;
56269;SDS011;42176;43.240;27.880;2024-02-14T10:33:41;2.25;;;1.60;;
56269;SDS011;42176;43.240;27.880;2024-02-14T10:35:41;4.40;;;1.80;;
56269;SDS011;42176;43.240;27.880;2024-02-14T10:37:42;2.20;;;1.20;;
56269;SDS011;42176;43.240;27.880;2024-02-14T10:39:46;3.35;;;1.58;;
56269;SDS011;42176;43.240;27.880;2024-02-14T10:41:47;3.15;;;1.98;;
56269;SDS011;42176;43.240;27.880;2024-02-14T10:43:48;5.70;;;1.70;;
56269;SDS011;42176;43.240;27.880;2024-02-14T10:45:48;2.43;;;1.43;;
56269;SDS011;42176;43.240;27.880;2024-02-14T10:47:51;2.72;;;1.35;;
56269;SDS011;42176;43.240;27.880;2024-02-14T10:49:53;2.63;;;1.65;;
56269;SDS011;42176;43.240;27.880;2024-02-14T10:51:57;1.80;;;1.60;;
56269;SDS011;42176;43.240;27.880;2024-02-14T10:54:07;6.80;;;1.33;;
56269;SDS011;42176;43.240;27.880;2024-02-14T10:56:12;1.73;;;1.20;;
56269;SDS011;42176;43.240;27.880;2024-02-14T10:58:21;3.08;;;2.15;;
56269;SDS011;42176;43.240;27.880;2024-02-14T11:00:24;1.85;;;1.10;;
56269;SDS011;42176;43.240;27.880;2024-02-14T11:02:26;3.13;;;1.58;;
56269;SDS011;42176;43.240;27.880;2024-02-14T11:04:32;4.03;;;1.98;;
56269;SDS011;42176;43.240;27.880;2024-02-14T11:06:46;3.13;;;1.53;;
56269;SDS011;42176;43.240;27.880;2024-02-14T11:08:57;2.03;;;1.40;;
56269;SDS011;42176;43.240;27.880;2024-02-14T11:11:02;2.63;;;1.33;;
56269;SDS011;42176;43.240;27.880;2024-02-14T11:13:02;4.43;;;1.07;;
56269;SDS011;42176;43.240;27.880;2024-02-14T11:15:19;1.23;;;1.10;;
56269;SDS011;42176;43.240;27.880;2024-02-14T11:17:23;4.38;;;1.33;;
56269;SDS011;42176;43.240;27.880;2024-02-14T11:19:30;1.13;;;1.02;;
56269;SDS011;42176;43.240;27.880;2024-02-14T11:21:42;1.80;;;1.42;;
56269;SDS011;42176;43.240;27.880;2024-02-14T11:23:52;1.88;;;0.73;;
56269;SDS011;42176;43.240;27.880;2024-02-14T11:26:00;1.85;;;1.30;;
56269;SDS011;42176;43.240;27.880;2024-02-14T11:28:17;0.70;;;0.60;;
56269;SDS011;42176;43.240;27.880;2024-02-14T11:30:28;5.78;;;1.50;;
56269;SDS011;42176;43.240;27.880;2024-02-14T11:32:31;4.22;;;2.45;;
56269;SDS011;42176;43.240;27.880;2024-02-14T11:34:32;3.13;;;2.15;;
56269;SDS011;42176;43.240;27.880;2024-02-14T11:36:33;3.05;;;1.58;;
56269;SDS011;42176;43.240;27.880;2024-02-14T11:38:35;2.08;;;1.40;;
56269;SDS011;42176;43.240;27.880;2024-02-14T11:40:36;1.40;;;0.80;;
56269;SDS011;42176;43.240;27.880;2024-02-14T11:42:41;3.22;;;1.55;;
56269;SDS011;42176;43.240;27.880;2024-02-14T11:44:41;2.27;;;1.63;;
56269;SDS011;42176;43.240;27.880;2024-02-14T11:46:43;4.50;;;2.00;;
56269;SDS011;42176;43.240;27.880;2024-02-14T11:48:43;2.20;;;1.40;;
56269;SDS011;42176;43.240;27.880;2024-02-14T11:50:47;1.10;;;1.00;;
56269;SDS011;42176;43.240;27.880;2024-02-14T11:52:47;1.37;;;0.93;;
56269;SDS011;42176;43.240;27.880;2024-02-14T11:54:48;3.83;;;1.10;;
56269;SDS011;42176;43.240;27.880;2024-02-14T11:56:49;1.70;;;0.90;;
56269;SDS011;42176;43.240;27.880;2024-02-14T11:58:49;1.77;;;1.53;;
56269;SDS011;42176;43.240;27.880;2024-02-14T12:00:50;4.63;;;1.73;;
56269;SDS011;42176;43.240;27.880;2024-02-14T12:02:51;5.57;;;1.17;;
56269;SDS011;42176;43.240;27.880;2024-02-14T12:04:52;1.27;;;0.73;;
56269;SDS011;42176;43.240;27.880;2024-02-14T12:06:55;1.73;;;1.25;;
56269;SDS011;42176;43.240;27.880;2024-02-14T12:08:56;0.97;;;0.90;;
56269;SDS011;42176;43.240;27.880;2024-02-14T12:10:56;1.93;;;0.77;;
56269;SDS011;42176;43.240;27.880;2024-02-14T12:12:57;5.57;;;0.70;;